Time;durP1;ratioP1;P1;durP2;ratioP2;P2;SDS_P1;SDS_P2;PMS_P1;PMS_P2;Temp;Humidity;BMP_temperature;BMP_pressure;BME280_temperature;BME280_humidity;BME280_pressure;Samples;Min_cycle;Max_cycle;Signal;HPM_P1;HPM_P2
2022/09/07 00:00:29;;;;;;;0.70;0.70;;;;;;;;;;5077730;28;20503;-76
2022/09/07 00:02:56;;;;;;;0.80;0.80;;;;;;;;;;5081136;28;20463;-75
2022/09/07 00:05:23;;;;;;;0.70;0.60;;;;;;;;;;5086608;28;20533;-76
2022/09/07 00:07:52;;;;;;;0.73;0.70;;;;;;;;;;5085387;28;20840;-76
2022/09/07 00:10:19;;;;;;;0.80;0.70;;;;;;;;;;5076698;28;20442;-76
2022/09/07 00:12:46;;;;;;;0.70;0.70;;;;;;;;;;5084873;28;20427;-76
2022/09/07 00:15:13;;;;;;;0.80;0.80;;;;;;;;;;5083960;28;20441;-76
2022/09/07 00:17:40;;;;;;;0.80;0.80;;;;;;;;;;5070096;28;20977;-77
2022/09/07 00:20:09;;;;;;;0.70;0.60;;;;;;;;;;5077200;28;20546;-76
2022/09/07 00:22:36;;;;;;;0.70;0.70;;;;;;;;;;5085996;28;20467;-76
2022/09/07 00:25:05;;;;;;;0.77;0.70;;;;;;;;;;5078084;28;20433;-77
2022/09/07 00:27:32;;;;;;;0.70;0.70;;;;;;;;;;5074935;28;20551;-76
2022/09/07 00:29:59;;;;;;;0.70;0.60;;;;;;;;;;5082251;28;20467;-76
2022/09/07 00:32:26;;;;;;;0.70;0.60;;;;;;;;;;5077418;28;20988;-77
2022/09/07 00:34:53;;;;;;;0.70;0.70;;;;;;;;;;5069506;28;20457;-77
2022/09/07 00:37:24;;;;;;;0.70;0.60;;;;;;;;;;5081641;28;20463;-77
2022/09/07 00:39:51;;;;;;;0.70;0.60;;;;;;;;;;5080552;28;20744;-77
2022/09/07 00:42:20;;;;;;;0.70;0.60;;;;;;;;;;5082645;28;20450;-76
2022/09/07 00:44:58;;;;;;;0.70;0.70;;;;;;;;;;5080967;28;20449;-77
2022/09/07 00:47:26;;;;;;;0.80;0.73;;;;;;;;;;5087266;28;20467;-76
2022/09/07 00:50:00;;;;;;;0.70;0.60;;;;;;;;;;5078891;28;20467;-76
2022/09/07 00:52:33;;;;;;;0.80;0.80;;;;;;;;;;5076194;28;20478;-76
2022/09/07 00:55:07;;;;;;;0.70;0.70;;;;;;;;;;5092571;28;20500;-77
2022/09/07 00:57:40;;;;;;;0.70;0.70;;;;;;;;;;5085925;28;20465;-77
2022/09/07 01:00:12;;;;;;;0.70;0.60;;;;;;;;;;5081656;28;20432;-76
2022/09/07 01:02:42;;;;;;;0.70;0.60;;;;;;;;;;5093476;28;20469;-77
2022/09/07 01:05:16;;;;;;;0.73;0.70;;;;;;;;;;5089115;28;20446;-76
2022/09/07 01:07:43;;;;;;;0.70;0.60;;;;;;;;;;5080360;28;20471;-76
2022/09/07 01:10:11;;;;;;;0.70;0.70;;;;;;;;;;5065738;28;20445;-76
2022/09/07 01:12:44;;;;;;;0.70;0.60;;;;;;;;;;5085817;28;20521;-77
2022/09/07 01:15:12;;;;;;;0.80;0.80;;;;;;;;;;5087553;28;20850;-76
2022/09/07 01:17:47;;;;;;;0.70;0.60;;;;;;;;;;5091290;28;20467;-76
2022/09/07 01:20:37;;;;;;;0.70;0.70;;;;;;;;;;5079729;28;20946;-76
2022/09/07 01:23:13;;;;;;;0.70;0.70;;;;;;;;;;5071293;28;20457;-77
2022/09/07 01:25:43;;;;;;;0.70;0.60;;;;;;;;;;5072896;28;20547;-76
2022/09/07 01:28:18;;;;;;;0.80;0.80;;;;;;;;;;5080751;28;20469;-76
2022/09/07 01:30:53;;;;;;;0.70;0.60;;;;;;;;;;5080612;28;20526;-76
2022/09/07 01:33:37;;;;;;;0.70;0.70;;;;;;;;;;5070767;28;20782;-76
2022/09/07 01:36:18;;;;;;;0.70;0.60;;;;;;;;;;5088113;28;20888;-76
2022/09/07 01:38:51;;;;;;;0.70;0.70;;;;;;;;;;5081484;28;20433;-76
2022/09/07 01:41:25;;;;;;;0.70;0.60;;;;;;;;;;5088100;28;20451;-76
2022/09/07 01:43:59;;;;;;;0.70;0.60;;;;;;;;;;5079390;28;20834;-76
2022/09/07 01:46:31;;;;;;;0.70;0.70;;;;;;;;;;5081181;28;20454;-76
2022/09/07 01:49:05;;;;;;;0.70;0.60;;;;;;;;;;5077749;28;20824;-76
2022/09/07 01:51:37;;;;;;;0.70;0.60;;;;;;;;;;5078615;28;20522;-76
2022/09/07 01:54:13;;;;;;;0.70;0.70;;;;;;;;;;5064606;28;20447;-75
2022/09/07 01:56:44;;;;;;;0.70;0.70;;;;;;;;;;5073280;28;20457;-76
2022/09/07 01:59:27;;;;;;;0.70;0.60;;;;;;;;;;5085348;28;20442;-75
2022/09/07 02:01:56;;;;;;;0.70;0.60;;;;;;;;;;5079587;28;20453;-76
2022/09/07 02:04:33;;;;;;;0.70;0.60;;;;;;;;;;5062330;28;20564;-77
2022/09/07 02:07:04;;;;;;;0.70;0.60;;;;;;;;;;5089705;28;20464;-77
2022/09/07 02:09:34;;;;;;;0.70;0.60;;;;;;;;;;5077278;28;20945;-77
2022/09/07 02:12:05;;;;;;;0.80;0.77;;;;;;;;;;5086807;28;20893;-76
2022/09/07 02:14:38;;;;;;;0.70;0.60;;;;;;;;;;5076477;28;21807;-76
2022/09/07 02:17:12;;;;;;;0.73;0.73;;;;;;;;;;5086888;28;20496;-77
2022/09/07 02:19:44;;;;;;;0.70;0.60;;;;;;;;;;5070350;28;20445;-76
2022/09/07 02:22:14;;;;;;;0.70;0.67;;;;;;;;;;5080984;28;20469;-76
2022/09/07 02:24:44;;;;;;;0.70;0.67;;;;;;;;;;5065411;28;20481;-76
2022/09/07 02:27:16;;;;;;;0.70;0.60;;;;;;;;;;5082125;28;20455;-75
2022/09/07 02:29:47;;;;;;;0.70;0.67;;;;;;;;;;5084875;28;20454;-76
2022/09/07 02:32:16;;;;;;;0.70;0.60;;;;;;;;;;5080839;28;20448;-75
2022/09/07 02:34:45;;;;;;;0.80;0.80;;;;;;;;;;5076026;28;20454;-75
2022/09/07 02:37:13;;;;;;;0.80;0.73;;;;;;;;;;5061761;28;20805;-76
2022/09/07 02:39:44;;;;;;;0.70;0.63;;;;;;;;;;5075142;28;20443;-77
2022/09/07 02:42:12;;;;;;;0.70;0.60;;;;;;;;;;5088047;28;20477;-75
2022/09/07 02:44:40;;;;;;;0.70;0.70;;;;;;;;;;5080616;28;20773;-76
2022/09/07 02:47:13;;;;;;;0.70;0.70;;;;;;;;;;5068212;28;20444;-76
2022/09/07 02:49:58;;;;;;;0.70;0.70;;;;;;;;;;5067777;28;20551;-75
2022/09/07 02:52:33;;;;;;;0.70;0.70;;;;;;;;;;5078981;28;20469;-76
2022/09/07 02:55:07;;;;;;;0.70;0.60;;;;;;;;;;5092171;28;20494;-76
2022/09/07 02:57:38;;;;;;;0.97;0.90;;;;;;;;;;5081800;28;20529;-75
2022/09/07 03:00:07;;;;;;;0.70;0.60;;;;;;;;;;5085149;28;20439;-76
2022/09/07 03:02:40;;;;;;;0.90;0.80;;;;;;;;;;5087986;28;20434;-75
2022/09/07 03:05:10;;;;;;;0.73;0.73;;;;;;;;;;5083566;28;20458;-76
2022/09/07 03:07:41;;;;;;;0.70;0.60;;;;;;;;;;5077803;28;20470;-75
2022/09/07 03:10:11;;;;;;;0.70;0.63;;;;;;;;;;5085755;28;20453;-76
2022/09/07 03:12:43;;;;;;;0.70;0.60;;;;;;;;;;5083965;28;21082;-76
2022/09/07 03:15:11;;;;;;;0.70;0.60;;;;;;;;;;5090604;28;20464;-76
2022/09/07 03:17:39;;;;;;;0.70;0.60;;;;;;;;;;5090713;28;20441;-75
2022/09/07 03:20:06;;;;;;;0.70;0.60;;;;;;;;;;5091427;28;20849;-76
2022/09/07 03:22:33;;;;;;;0.90;0.90;;;;;;;;;;5085555;28;20458;-75
2022/09/07 03:25:03;;;;;;;0.70;0.60;;;;;;;;;;5087977;28;20954;-75
2022/09/07 03:27:30;;;;;;;0.70;0.60;;;;;;;;;;5084377;28;20473;-75
2022/09/07 03:29:57;;;;;;;0.70;0.60;;;;;;;;;;5084914;28;20540;-75
2022/09/07 03:32:29;;;;;;;0.67;0.67;;;;;;;;;;5081520;28;20440;-75
2022/09/07 03:34:57;;;;;;;0.80;0.80;;;;;;;;;;5086267;28;20475;-76
2022/09/07 03:37:24;;;;;;;0.70;0.70;;;;;;;;;;5081924;28;20589;-76
2022/09/07 03:39:51;;;;;;;0.70;0.60;;;;;;;;;;5084057;28;20431;-73
2022/09/07 03:42:19;;;;;;;0.70;0.70;;;;;;;;;;5086536;28;20451;-76
2022/09/07 03:44:48;;;;;;;0.77;0.77;;;;;;;;;;5088528;28;20506;-76
2022/09/07 03:47:15;;;;;;;0.80;0.80;;;;;;;;;;5081888;28;20969;-76
2022/09/07 03:49:43;;;;;;;0.63;0.63;;;;;;;;;;5084502;28;20502;-75
2022/09/07 03:52:12;;;;;;;0.70;0.70;;;;;;;;;;5087415;28;20481;-75
2022/09/07 03:54:39;;;;;;;0.70;0.70;;;;;;;;;;5080617;28;21029;-74
2022/09/07 03:57:06;;;;;;;0.70;0.70;;;;;;;;;;5076148;28;20449;-75
2022/09/07 03:59:33;;;;;;;0.70;0.67;;;;;;;;;;5080161;28;20517;-75
2022/09/07 04:02:00;;;;;;;0.70;0.60;;;;;;;;;;5080840;28;20443;-75
2022/09/07 04:04:27;;;;;;;0.70;0.67;;;;;;;;;;5089743;28;20939;-74
2022/09/07 04:06:53;;;;;;;0.77;0.77;;;;;;;;;;5079181;28;20865;-75
2022/09/07 04:09:22;;;;;;;1.00;0.90;;;;;;;;;;5082890;28;20463;-75
2022/09/07 04:11:49;;;;;;;0.70;0.67;;;;;;;;;;5092584;28;20469;-74
2022/09/07 04:14:16;;;;;;;0.80;0.80;;;;;;;;;;5084132;28;20435;-75
2022/09/07 04:16:44;;;;;;;0.70;0.60;;;;;;;;;;5082334;28;20442;-74
2022/09/07 04:19:11;;;;;;;0.70;0.60;;;;;;;;;;5082831;28;20468;-74
2022/09/07 04:21:38;;;;;;;0.70;0.60;;;;;;;;;;5082649;28;20465;-74
2022/09/07 04:24:04;;;;;;;0.70;0.70;;;;;;;;;;5080932;28;20500;-75
2022/09/07 04:26:34;;;;;;;0.70;0.60;;;;;;;;;;5074390;28;21025;-75
2022/09/07 04:29:01;;;;;;;0.87;0.87;;;;;;;;;;5086946;28;20476;-74
2022/09/07 04:31:28;;;;;;;0.70;0.70;;;;;;;;;;5081902;28;20985;-74
2022/09/07 04:33:55;;;;;;;0.80;0.80;;;;;;;;;;5079750;28;20562;-74
2022/09/07 04:36:23;;;;;;;0.70;0.70;;;;;;;;;;5066593;28;20475;-74
2022/09/07 04:38:53;;;;;;;1.10;0.90;;;;;;;;;;5088498;28;20446;-74
2022/09/07 04:41:22;;;;;;;0.60;0.60;;;;;;;;;;5079664;28;20804;-75
2022/09/07 04:43:53;;;;;;;0.70;0.60;;;;;;;;;;5078078;28;20478;-75
2022/09/07 04:46:20;;;;;;;1.10;1.00;;;;;;;;;;5078701;28;20449;-74
2022/09/07 04:48:47;;;;;;;0.87;0.87;;;;;;;;;;5080820;28;20469;-74
2022/09/07 04:51:14;;;;;;;1.00;0.97;;;;;;;;;;5084571;28;20454;-74
2022/09/07 04:53:41;;;;;;;0.70;0.67;;;;;;;;;;5076904;28;20458;-74
2022/09/07 04:56:08;;;;;;;0.70;0.63;;;;;;;;;;5085664;28;20492;-75
2022/09/07 04:58:40;;;;;;;0.60;0.60;;;;;;;;;;5076141;28;20431;-73
2022/09/07 05:01:09;;;;;;;0.70;0.70;;;;;;;;;;5090131;28;20462;-74
2022/09/07 05:03:37;;;;;;;0.70;0.70;;;;;;;;;;5077192;28;20844;-74
2022/09/07 05:06:04;;;;;;;0.70;0.63;;;;;;;;;;5081346;28;20482;-76
2022/09/07 05:08:34;;;;;;;0.60;0.60;;;;;;;;;;5083395;28;20476;-76
2022/09/07 05:11:01;;;;;;;0.60;0.60;;;;;;;;;;5084490;28;20438;-76
2022/09/07 05:13:28;;;;;;;0.67;0.60;;;;;;;;;;5078957;28;20451;-74
2022/09/07 05:15:55;;;;;;;0.80;0.80;;;;;;;;;;5077195;28;21159;-75
2022/09/07 05:18:24;;;;;;;0.60;0.60;;;;;;;;;;5077219;28;20461;-74
2022/09/07 05:20:51;;;;;;;0.80;0.80;;;;;;;;;;5074710;28;20466;-75
2022/09/07 05:23:19;;;;;;;0.70;0.70;;;;;;;;;;5083521;28;20546;-76
2022/09/07 05:25:46;;;;;;;0.70;0.60;;;;;;;;;;5091381;28;20441;-75
2022/09/07 05:28:13;;;;;;;0.70;0.70;;;;;;;;;;5095060;28;20758;-74
2022/09/07 05:30:45;;;;;;;0.70;0.70;;;;;;;;;;5072058;28;20482;-74
2022/09/07 05:33:34;;;;;;;0.70;0.70;;;;;;;;;;5080971;28;20598;-74
2022/09/07 05:36:25;;;;;;;0.67;0.67;;;;;;;;;;5084195;28;20461;-74
2022/09/07 05:38:52;;;;;;;0.63;0.60;;;;;;;;;;5086135;28;20437;-74
2022/09/07 05:41:20;;;;;;;0.60;0.60;;;;;;;;;;5087251;28;20494;-74
2022/09/07 05:43:47;;;;;;;0.60;0.60;;;;;;;;;;5079415;28;20458;-74
2022/09/07 05:46:35;;;;;;;0.70;0.70;;;;;;;;;;5088448;28;20966;-75
2022/09/07 05:49:04;;;;;;;0.80;0.80;;;;;;;;;;5073269;28;20534;-74
2022/09/07 05:51:31;;;;;;;0.67;0.63;;;;;;;;;;5073766;28;20470;-75
2022/09/07 05:53:58;;;;;;;0.80;0.80;;;;;;;;;;5076971;28;20502;-75
2022/09/07 05:56:25;;;;;;;0.70;0.60;;;;;;;;;;5078558;28;20478;-74
2022/09/07 05:58:52;;;;;;;0.70;0.63;;;;;;;;;;5086094;28;20523;-74
2022/09/07 06:01:19;;;;;;;1.27;0.90;;;;;;;;;;5080937;28;20854;-74
2022/09/07 06:03:46;;;;;;;0.70;0.60;;;;;;;;;;5082534;28;20831;-73
2022/09/07 06:06:15;;;;;;;0.70;0.70;;;;;;;;;;5079604;28;20495;-74
2022/09/07 06:08:43;;;;;;;1.37;1.23;;;;;;;;;;5080008;28;20513;-74
2022/09/07 06:11:11;;;;;;;1.43;1.33;;;;;;;;;;5083255;28;20454;-73
2022/09/07 06:13:39;;;;;;;0.90;0.90;;;;;;;;;;5075150;28;20439;-73
2022/09/07 06:16:06;;;;;;;0.70;0.60;;;;;;;;;;5074466;28;20794;-74
2022/09/07 06:18:34;;;;;;;19.87;1.63;;;;;;;;;;5074875;28;20602;-75
2022/09/07 06:21:02;;;;;;;0.70;0.70;;;;;;;;;;5078424;28;20511;-73
2022/09/07 06:23:30;;;;;;;1.23;1.20;;;;;;;;;;5078562;28;20439;-73
2022/09/07 06:25:57;;;;;;;0.70;0.60;;;;;;;;;;5080200;28;20424;-73
2022/09/07 06:28:26;;;;;;;0.70;0.70;;;;;;;;;;5082245;28;20436;-73
2022/09/07 06:30:57;;;;;;;0.80;0.80;;;;;;;;;;5085662;28;20895;-74
2022/09/07 06:33:24;;;;;;;0.87;0.87;;;;;;;;;;5077662;28;20486;-74
2022/09/07 06:35:53;;;;;;;3.17;0.97;;;;;;;;;;5077828;28;20467;-74
2022/09/07 06:38:20;;;;;;;0.80;0.80;;;;;;;;;;5088583;28;20546;-74
2022/09/07 06:40:48;;;;;;;1.10;1.00;;;;;;;;;;5089261;28;20453;-74
2022/09/07 06:43:15;;;;;;;0.67;0.60;;;;;;;;;;5097021;28;20498;-74
2022/09/07 06:45:42;;;;;;;0.70;0.70;;;;;;;;;;5089003;28;20505;-73
2022/09/07 06:48:09;;;;;;;0.70;0.60;;;;;;;;;;5088453;28;20545;-74
2022/09/07 06:50:36;;;;;;;0.70;0.63;;;;;;;;;;5091185;28;20489;-73
2022/09/07 06:53:02;;;;;;;0.70;0.70;;;;;;;;;;5083920;28;20946;-73
2022/09/07 06:55:51;;;;;;;0.73;0.73;;;;;;;;;;5085805;28;20436;-74
2022/09/07 06:58:18;;;;;;;1.10;1.00;;;;;;;;;;5086662;28;20445;-74
2022/09/07 07:00:44;;;;;;;0.70;0.70;;;;;;;;;;5088630;28;20532;-73
2022/09/07 07:03:11;;;;;;;0.60;0.60;;;;;;;;;;5077116;28;20438;-73
2022/09/07 07:05:39;;;;;;;0.70;0.70;;;;;;;;;;5076677;28;20511;-73
2022/09/07 07:08:05;;;;;;;1.30;1.20;;;;;;;;;;5092108;28;20429;-74
2022/09/07 07:10:35;;;;;;;0.70;0.60;;;;;;;;;;5093710;28;20829;-74
2022/09/07 07:13:03;;;;;;;2.80;2.60;;;;;;;;;;5092854;28;20456;-73
2022/09/07 07:15:30;;;;;;;0.60;0.60;;;;;;;;;;5091665;28;20558;-73
2022/09/07 07:17:57;;;;;;;1.30;1.20;;;;;;;;;;5091569;28;20943;-73
2022/09/07 07:20:44;;;;;;;0.80;0.80;;;;;;;;;;5086458;28;21059;-73
2022/09/07 07:23:11;;;;;;;1.57;1.37;;;;;;;;;;5085832;28;20462;-73
2022/09/07 07:25:38;;;;;;;0.80;0.80;;;;;;;;;;5085360;28;20433;-73
2022/09/07 07:28:06;;;;;;;0.70;0.60;;;;;;;;;;5080099;28;20458;-72
2022/09/07 07:30:54;;;;;;;0.70;0.70;;;;;;;;;;5068275;28;20498;-73
2022/09/07 07:33:21;;;;;;;0.70;0.67;;;;;;;;;;5080085;28;20440;-72
2022/09/07 07:35:48;;;;;;;0.70;0.70;;;;;;;;;;5077616;28;20994;-72
2022/09/07 07:38:15;;;;;;;0.70;0.70;;;;;;;;;;5075728;28;20968;-72
2022/09/07 07:41:03;;;;;;;0.73;0.70;;;;;;;;;;5080686;28;20429;-72
2022/09/07 07:43:55;;;;;;;0.70;0.60;;;;;;;;;;5089031;28;20836;-71
2022/09/07 07:46:24;;;;;;;0.70;0.70;;;;;;;;;;5081352;28;20443;-72
2022/09/07 07:48:52;;;;;;;2.53;0.93;;;;;;;;;;5084543;28;20454;-72
2022/09/07 07:51:19;;;;;;;0.77;0.73;;;;;;;;;;5082403;28;21373;-72
2022/09/07 07:53:46;;;;;;;0.73;0.73;;;;;;;;;;5082863;28;20438;-71
2022/09/07 07:56:14;;;;;;;0.70;0.70;;;;;;;;;;5086759;28;20929;-72
2022/09/07 07:58:43;;;;;;;0.70;0.63;;;;;;;;;;5091765;28;20468;-71
2022/09/07 08:01:13;;;;;;;1.10;0.97;;;;;;;;;;5083018;28;20462;-71
2022/09/07 08:03:40;;;;;;;0.70;0.70;;;;;;;;;;5076126;28;20525;-71
2022/09/07 08:06:09;;;;;;;0.70;0.70;;;;;;;;;;5087993;28;20495;-71
2022/09/07 08:08:36;;;;;;;0.80;0.80;;;;;;;;;;5075837;28;20737;-71
2022/09/07 08:11:05;;;;;;;0.80;0.80;;;;;;;;;;5083817;28;20463;-72
2022/09/07 08:13:33;;;;;;;0.70;0.70;;;;;;;;;;5082569;28;20423;-71
2022/09/07 08:16:00;;;;;;;1.90;0.90;;;;;;;;;;5084069;28;20427;-71
2022/09/07 08:18:29;;;;;;;0.80;0.70;;;;;;;;;;5084884;28;20465;-71
2022/09/07 08:20:58;;;;;;;0.80;0.80;;;;;;;;;;5080738;28;20489;-71
2022/09/07 08:23:25;;;;;;;1.00;0.90;;;;;;;;;;5063308;28;20511;-70
2022/09/07 08:25:53;;;;;;;0.70;0.70;;;;;;;;;;5082257;28;20991;-71
2022/09/07 08:28:20;;;;;;;0.80;0.70;;;;;;;;;;5067131;28;20817;-71
2022/09/07 08:30:46;;;;;;;0.77;0.70;;;;;;;;;;5083140;28;20490;-71
2022/09/07 08:33:13;;;;;;;0.70;0.70;;;;;;;;;;5085912;28;20422;-72
2022/09/07 08:35:42;;;;;;;0.77;0.70;;;;;;;;;;5081027;28;20550;-71
2022/09/07 08:38:09;;;;;;;0.80;0.80;;;;;;;;;;5093335;28;20426;-71
2022/09/07 08:40:37;;;;;;;0.70;0.70;;;;;;;;;;5085677;28;20443;-71
2022/09/07 08:43:12;;;;;;;0.70;0.67;;;;;;;;;;5074979;28;20478;-72
2022/09/07 08:45:42;;;;;;;0.80;0.80;;;;;;;;;;5081919;28;20959;-72
2022/09/07 08:48:10;;;;;;;0.80;0.80;;;;;;;;;;5090617;28;20457;-72
2022/09/07 08:50:40;;;;;;;0.80;0.80;;;;;;;;;;5085972;28;20564;-71
2022/09/07 08:53:11;;;;;;;1.33;1.10;;;;;;;;;;5077052;28;20851;-71
2022/09/07 08:55:39;;;;;;;0.80;0.70;;;;;;;;;;5076908;28;20431;-71
2022/09/07 08:58:09;;;;;;;0.70;0.70;;;;;;;;;;5075337;28;20466;-70
2022/09/07 09:00:57;;;;;;;0.70;0.70;;;;;;;;;;5077502;28;20470;-72
2022/09/07 09:03:46;;;;;;;0.70;0.70;;;;;;;;;;5077446;28;20550;-71
2022/09/07 09:06:40;;;;;;;0.80;0.80;;;;;;;;;;5082569;28;20476;-72
2022/09/07 09:09:15;;;;;;;0.70;0.70;;;;;;;;;;5083902;28;20434;-72
2022/09/07 09:11:50;;;;;;;0.80;0.70;;;;;;;;;;5084479;28;20819;-72
2022/09/07 09:14:19;;;;;;;0.70;0.70;;;;;;;;;;5085179;28;20445;-72
2022/09/07 09:16:49;;;;;;;0.70;0.60;;;;;;;;;;5082474;28;20814;-72
2022/09/07 09:19:29;;;;;;;0.73;0.67;;;;;;;;;;5078131;28;20449;-72
2022/09/07 09:22:00;;;;;;;0.70;0.60;;;;;;;;;;5089101;28;20991;-73
2022/09/07 09:24:32;;;;;;;0.80;0.70;;;;;;;;;;5094755;28;20397;-72
2022/09/07 09:26:59;;;;;;;0.70;0.60;;;;;;;;;;5087439;28;20880;-71
2022/09/07 09:29:26;;;;;;;0.70;0.70;;;;;;;;;;5077217;28;20842;-72
2022/09/07 09:31:53;;;;;;;0.80;0.70;;;;;;;;;;5084581;28;20442;-72
2022/09/07 09:34:20;;;;;;;1.43;1.33;;;;;;;;;;5086240;28;20488;-72
2022/09/07 09:36:54;;;;;;;0.70;0.67;;;;;;;;;;5097696;28;20506;-73
2022/09/07 09:39:33;;;;;;;0.90;0.90;;;;;;;;;;5065755;28;20550;-72
2022/09/07 09:42:13;;;;;;;0.70;0.60;;;;;;;;;;5080296;28;20492;-72
2022/09/07 09:44:41;;;;;;;0.80;0.70;;;;;;;;;;5088677;28;20434;-71
2022/09/07 09:47:25;;;;;;;0.70;0.60;;;;;;;;;;5081492;28;20542;-72
2022/09/07 09:49:58;;;;;;;0.80;0.80;;;;;;;;;;5079127;28;20458;-73
2022/09/07 09:52:26;;;;;;;0.80;0.70;;;;;;;;;;5073392;28;20459;-74
2022/09/07 09:54:59;;;;;;;0.70;0.50;;;;;;;;;;5073821;28;20564;-72
2022/09/07 09:57:48;;;;;;;0.80;0.80;;;;;;;;;;5076053;28;20447;-73
2022/09/07 10:00:35;;;;;;;1.03;0.93;;;;;;;;;;5082189;28;22040;-71
2022/09/07 10:03:24;;;;;;;0.70;0.60;;;;;;;;;;5083110;28;20430;-72
2022/09/07 10:06:15;;;;;;;0.73;0.63;;;;;;;;;;5083611;28;20450;-73
2022/09/07 10:08:50;;;;;;;0.80;0.60;;;;;;;;;;5085449;28;20436;-71
2022/09/07 10:11:37;;;;;;;0.70;0.60;;;;;;;;;;5086229;28;20461;-72
2022/09/07 10:14:27;;;;;;;0.70;0.50;;;;;;;;;;5085234;28;20453;-72
2022/09/07 10:16:54;;;;;;;0.80;0.60;;;;;;;;;;5090716;28;20473;-73
2022/09/07 10:19:23;;;;;;;0.77;0.60;;;;;;;;;;5092833;28;20453;-72
2022/09/07 10:21:54;;;;;;;0.70;0.50;;;;;;;;;;5090539;28;20458;-73
2022/09/07 10:24:24;;;;;;;0.77;0.50;;;;;;;;;;5089644;28;20430;-73
2022/09/07 10:26:52;;;;;;;1.00;0.80;;;;;;;;;;5080699;28;20484;-73
2022/09/07 10:29:24;;;;;;;0.80;0.50;;;;;;;;;;5085072;28;20431;-73
2022/09/07 10:32:00;;;;;;;0.80;0.50;;;;;;;;;;5081750;28;20464;-73
2022/09/07 10:34:31;;;;;;;0.80;0.60;;;;;;;;;;5084768;28;20442;-72
2022/09/07 10:37:01;;;;;;;0.80;0.60;;;;;;;;;;5079535;28;20503;-74
2022/09/07 10:39:31;;;;;;;0.80;0.60;;;;;;;;;;5088693;28;20427;-74
2022/09/07 10:42:02;;;;;;;0.80;0.60;;;;;;;;;;5071226;28;20454;-73
2022/09/07 10:44:37;;;;;;;0.80;0.60;;;;;;;;;;5090902;28;20457;-73
2022/09/07 10:47:06;;;;;;;0.80;0.70;;;;;;;;;;5086306;28;20430;-73
2022/09/07 10:49:36;;;;;;;0.80;0.70;;;;;;;;;;5080712;28;20426;-73
2022/09/07 10:52:08;;;;;;;0.80;0.70;;;;;;;;;;5076335;28;20510;-73
2022/09/07 10:54:39;;;;;;;0.80;0.80;;;;;;;;;;5079432;28;20435;-73
2022/09/07 10:57:16;;;;;;;0.80;0.70;;;;;;;;;;5081416;28;20418;-74
2022/09/07 10:59:50;;;;;;;0.80;0.60;;;;;;;;;;5088958;28;20955;-73
2022/09/07 11:02:39;;;;;;;0.80;0.73;;;;;;;;;;5077876;28;20433;-74
2022/09/07 11:05:13;;;;;;;1.13;1.03;;;;;;;;;;5097504;28;20445;-74
2022/09/07 11:07:49;;;;;;;0.80;0.73;;;;;;;;;;5080262;28;20844;-74
2022/09/07 11:10:20;;;;;;;0.70;0.60;;;;;;;;;;5067521;28;20835;-73
2022/09/07 11:12:50;;;;;;;0.80;0.80;;;;;;;;;;5082686;28;20536;-74
2022/09/07 11:15:20;;;;;;;0.70;0.60;;;;;;;;;;5062277;28;20927;-74
2022/09/07 11:17:47;;;;;;;0.80;0.70;;;;;;;;;;5073647;28;20810;-73
2022/09/07 11:20:23;;;;;;;0.80;0.70;;;;;;;;;;5087832;28;20436;-73
2022/09/07 11:22:53;;;;;;;0.70;0.60;;;;;;;;;;5082603;28;20867;-73
2022/09/07 11:25:22;;;;;;;0.80;0.80;;;;;;;;;;5074237;28;20449;-73
2022/09/07 11:28:00;;;;;;;0.80;0.60;;;;;;;;;;5082208;28;20468;-74
2022/09/07 11:30:30;;;;;;;0.70;0.60;;;;;;;;;;5080455;28;20486;-74
2022/09/07 11:33:00;;;;;;;1.00;0.73;;;;;;;;;;5080643;28;20446;-74
2022/09/07 11:35:39;;;;;;;0.70;0.60;;;;;;;;;;5083362;28;20481;-74
2022/09/07 11:38:12;;;;;;;0.97;0.83;;;;;;;;;;5094104;28;20442;-74
2022/09/07 11:40:41;;;;;;;0.80;0.67;;;;;;;;;;5093812;28;20450;-74
2022/09/07 11:43:13;;;;;;;0.80;0.60;;;;;;;;;;5083206;28;20434;-74
2022/09/07 11:45:42;;;;;;;1.10;0.80;;;;;;;;;;5078948;28;20438;-74
2022/09/07 11:48:13;;;;;;;0.70;0.60;;;;;;;;;;5088671;28;20445;-74
2022/09/07 11:50:49;;;;;;;1.20;1.03;;;;;;;;;;5073455;28;20473;-74
2022/09/07 11:53:17;;;;;;;0.80;0.77;;;;;;;;;;5085458;28;20579;-73
2022/09/07 11:55:45;;;;;;;0.80;0.70;;;;;;;;;;5087909;28;20442;-73
2022/09/07 11:58:24;;;;;;;0.80;0.70;;;;;;;;;;5082610;28;20817;-73
2022/09/07 12:00:54;;;;;;;0.77;0.70;;;;;;;;;;5085976;28;20546;-74
2022/09/07 12:03:30;;;;;;;0.90;0.90;;;;;;;;;;5063549;28;20450;-73
2022/09/07 12:06:25;;;;;;;0.70;0.60;;;;;;;;;;5058500;28;20463;-73
2022/09/07 12:08:59;;;;;;;1.30;1.20;;;;;;;;;;5084354;28;20438;-73
2022/09/07 12:11:38;;;;;;;0.80;0.60;;;;;;;;;;5092489;28;20817;-73
2022/09/07 12:14:19;;;;;;;0.80;0.70;;;;;;;;;;5079858;28;20442;-77
2022/09/07 12:17:05;;;;;;;0.80;0.70;;;;;;;;;;5089237;28;20436;-78
2022/09/07 12:19:32;;;;;;;0.70;0.60;;;;;;;;;;5088400;28;20799;-79
2022/09/07 12:21:59;;;;;;;0.80;0.80;;;;;;;;;;5083133;28;20466;-78
2022/09/07 12:24:37;;;;;;;0.70;0.60;;;;;;;;;;5081792;28;20435;-79
2022/09/07 12:27:04;;;;;;;0.80;0.70;;;;;;;;;;5088127;28;20922;-77
2022/09/07 12:29:33;;;;;;;1.63;1.53;;;;;;;;;;5072761;28;20434;-77
2022/09/07 12:32:02;;;;;;;0.80;0.70;;;;;;;;;;5075337;28;20463;-76
2022/09/07 12:34:51;;;;;;;1.20;1.00;;;;;;;;;;5072766;28;20469;-77
2022/09/07 12:37:36;;;;;;;0.80;0.70;;;;;;;;;;5075330;28;20974;-79
2022/09/07 12:40:22;;;;;;;0.80;0.80;;;;;;;;;;5086453;28;20974;-78
2022/09/07 12:43:09;;;;;;;0.77;0.70;;;;;;;;;;5076965;28;20821;-76
2022/09/07 12:45:55;;;;;;;0.80;0.73;;;;;;;;;;5080306;28;20450;-78
2022/09/07 12:48:29;;;;;;;1.43;1.33;;;;;;;;;;5075746;28;20470;-76
2022/09/07 12:50:57;;;;;;;1.43;0.80;;;;;;;;;;5075235;28;20621;-79
2022/09/07 12:53:29;;;;;;;0.80;0.70;;;;;;;;;;5087727;28;20438;-76
2022/09/07 12:56:06;;;;;;;0.70;0.60;;;;;;;;;;5091146;28;20442;-76
2022/09/07 12:58:54;;;;;;;0.80;0.70;;;;;;;;;;5087845;28;20431;-78
2022/09/07 13:01:28;;;;;;;0.80;0.70;;;;;;;;;;5075772;28;20473;-78
2022/09/07 13:04:08;;;;;;;0.80;0.60;;;;;;;;;;5090269;28;20901;-78
2022/09/07 13:06:47;;;;;;;0.90;0.70;;;;;;;;;;5093199;28;20474;-78
2022/09/07 13:09:33;;;;;;;0.80;0.80;;;;;;;;;;5082255;28;20517;-77
2022/09/07 13:12:03;;;;;;;0.70;0.60;;;;;;;;;;5086579;28;20463;-77
2022/09/07 13:14:32;;;;;;;1.20;0.80;;;;;;;;;;5084973;28;20470;-79
2022/09/07 13:17:19;;;;;;;0.70;0.60;;;;;;;;;;5081921;28;20470;-78
2022/09/07 13:20:17;;;;;;;0.70;0.60;;;;;;;;;;5080262;28;20426;-79
2022/09/07 13:23:02;;;;;;;0.70;0.50;;;;;;;;;;5078726;28;20428;-79
2022/09/07 13:25:44;;;;;;;1.00;0.90;;;;;;;;;;5067869;28;20579;-79
2022/09/07 13:28:30;;;;;;;0.80;0.60;;;;;;;;;;5075659;28;20833;-79
2022/09/07 13:31:03;;;;;;;0.80;0.80;;;;;;;;;;5086897;28;20481;-79
2022/09/07 13:33:47;;;;;;;1.00;0.90;;;;;;;;;;5079423;28;20450;-79
2022/09/07 13:36:35;;;;;;;0.70;0.50;;;;;;;;;;5083079;28;20466;-78
2022/09/07 13:39:06;;;;;;;0.70;0.60;;;;;;;;;;5080875;28;20469;-78
2022/09/07 13:41:35;;;;;;;1.20;0.70;;;;;;;;;;5085447;28;20426;-79
2022/09/07 13:44:03;;;;;;;1.00;0.70;;;;;;;;;;5078800;28;20431;-77
2022/09/07 13:46:37;;;;;;;0.80;0.67;;;;;;;;;;5086033;28;20448;-78
2022/09/07 13:49:07;;;;;;;0.70;0.60;;;;;;;;;;5092500;28;20866;-78
2022/09/07 13:51:38;;;;;;;0.90;0.90;;;;;;;;;;5073681;28;20571;-79
2022/09/07 13:54:09;;;;;;;0.80;0.70;;;;;;;;;;5076121;28;20506;-78
2022/09/07 13:56:39;;;;;;;0.80;0.70;;;;;;;;;;5075605;28;20431;-78
2022/09/07 13:59:16;;;;;;;0.70;0.50;;;;;;;;;;5076710;28;20455;-79
2022/09/07 14:01:44;;;;;;;0.80;0.60;;;;;;;;;;5095427;28;20451;-77
2022/09/07 14:04:18;;;;;;;0.80;0.70;;;;;;;;;;5081629;28;20442;-78
2022/09/07 14:06:45;;;;;;;0.70;0.60;;;;;;;;;;5084707;28;20470;-78
2022/09/07 14:09:14;;;;;;;0.70;0.60;;;;;;;;;;5081700;28;20443;-78
2022/09/07 14:11:42;;;;;;;0.70;0.60;;;;;;;;;;5081842;28;20470;-78
2022/09/07 14:14:17;;;;;;;0.80;0.73;;;;;;;;;;5070654;28;20800;-79
2022/09/07 14:16:45;;;;;;;23.13;1.53;;;;;;;;;;5076262;28;20438;-77
2022/09/07 14:19:16;;;;;;;1.20;0.73;;;;;;;;;;5075934;28;20823;-77
2022/09/07 14:21:43;;;;;;;1.30;0.93;;;;;;;;;;5088701;28;20618;-77
2022/09/07 14:24:20;;;;;;;0.70;0.57;;;;;;;;;;5075548;28;20441;-76
2022/09/07 14:26:47;;;;;;;0.70;0.60;;;;;;;;;;5091985;28;20436;-77
2022/09/07 14:29:32;;;;;;;0.70;0.60;;;;;;;;;;5073909;28;20446;-77
2022/09/07 14:32:00;;;;;;;0.80;0.60;;;;;;;;;;5081872;28;20466;-77
2022/09/07 14:34:30;;;;;;;0.80;0.60;;;;;;;;;;5098403;28;20874;-77
2022/09/07 14:36:58;;;;;;;0.80;0.60;;;;;;;;;;5084472;28;20475;-76
2022/09/07 14:39:32;;;;;;;0.80;0.60;;;;;;;;;;5078735;28;20458;-77
2022/09/07 14:42:01;;;;;;;0.70;0.60;;;;;;;;;;5073921;28;20430;-76
2022/09/07 14:44:30;;;;;;;0.80;0.70;;;;;;;;;;5073750;28;20506;-77
2022/09/07 14:46:58;;;;;;;0.80;0.80;;;;;;;;;;5088494;28;20857;-74
2022/09/07 14:49:24;;;;;;;1.00;0.83;;;;;;;;;;5089974;28;20533;-76
2022/09/07 14:51:52;;;;;;;0.80;0.60;;;;;;;;;;5085201;28;20465;-76
2022/09/07 14:54:20;;;;;;;0.80;0.70;;;;;;;;;;5082951;28;20779;-75
2022/09/07 14:56:59;;;;;;;0.80;0.70;;;;;;;;;;5083895;28;20951;-77
2022/09/07 14:59:33;;;;;;;0.80;0.80;;;;;;;;;;5078117;28;20434;-77
2022/09/07 15:02:17;;;;;;;0.80;0.60;;;;;;;;;;5085311;28;20778;-77
2022/09/07 15:04:45;;;;;;;0.70;0.60;;;;;;;;;;5083801;28;20454;-77
2022/09/07 15:07:27;;;;;;;0.83;0.70;;;;;;;;;;5093004;28;20964;-77
2022/09/07 15:09:54;;;;;;;0.80;0.80;;;;;;;;;;5092619;28;20790;-77